Time;durP1;ratioP1;P1;durP2;ratioP2;P2;SDS_P1;SDS_P2;PMS_P1;PMS_P2;Temp;Humidity;BMP_temperature;BMP_pressure;BME280_temperature;BME280_humidity;BME280_pressure;Samples;Min_cycle;Max_cycle;Signal;HPM_P1;HPM_P2
2024/02/06 00:00:10;;;;;;;2.40;1.63;;;22.00;72.40;;;;;;4791412;28;20463;-62
2024/02/06 00:02:40;;;;;;;7.60;1.37;;;22.00;72.50;;;;;;4799608;28;20600;-63
2024/02/06 00:05:08;;;;;;;1.17;1.03;;;22.00;72.60;;;;;;4805559;28;20475;-64
2024/02/06 00:07:36;;;;;;;1.77;1.27;;;22.00;72.40;;;;;;4806769;28;20598;-63
2024/02/06 00:10:05;;;;;;;2.53;1.10;;;22.10;72.60;;;;;;4806564;28;20472;-63
2024/02/06 00:12:42;;;;;;;5.13;1.00;;;21.90;72.10;;;;;;4800516;28;20618;-65
2024/02/06 00:15:21;;;;;;;1.70;1.47;;;21.90;72.20;;;;;;4802286;28;20460;-64
2024/02/06 00:18:01;;;;;;;1.53;1.20;;;21.90;72.80;;;;;;4801701;28;21112;-65
2024/02/06 00:20:30;;;;;;;3.50;1.37;;;21.90;72.10;;;;;;4805270;28;20793;-63
2024/02/06 00:23:07;;;;;;;2.50;1.33;;;21.90;72.10;;;;;;4807537;28;20475;-63
2024/02/06 00:25:38;;;;;;;2.10;1.03;;;21.90;72.10;;;;;;4804589;28;20614;-64
2024/02/06 00:28:24;;;;;;;1.20;1.00;;;21.90;72.10;;;;;;4804166;28;20659;-64
2024/02/06 00:30:53;;;;;;;2.23;1.10;;;22.10;72.20;;;;;;4810288;28;21156;-64
2024/02/06 00:33:44;;;;;;;2.00;1.50;;;21.80;71.80;;;;;;4803474;28;20484;-64
2024/02/06 00:36:12;;;;;;;3.47;1.47;;;21.90;72.00;;;;;;4802956;28;20456;-62
2024/02/06 00:38:54;;;;;;;1.87;1.00;;;21.80;72.00;;;;;;4800449;28;20470;-63
2024/02/06 00:41:23;;;;;;;2.20;2.00;;;21.90;72.00;;;;;;4804299;28;20595;-62
2024/02/06 00:43:52;;;;;;;1.30;1.00;;;21.80;71.80;;;;;;4803000;28;20476;-65
2024/02/06 00:46:38;;;;;;;1.47;1.10;;;21.80;71.70;;;;;;4799556;28;21112;-64
2024/02/06 00:49:15;;;;;;;1.20;1.10;;;21.80;71.70;;;;;;4799398;28;20495;-65
2024/02/06 00:51:59;;;;;;;2.33;1.10;;;21.70;71.60;;;;;;4803235;28;20619;-61
2024/02/06 00:54:28;;;;;;;1.40;1.00;;;21.80;71.80;;;;;;4795321;28;20941;-64
2024/02/06 00:57:08;;;;;;;;;;;;;;;;;;;;;
2024/02/06 00:59:41;;;;;;;2.37;1.07;;;21.70;71.70;;;;;;4793067;28;22000;-63
2024/02/06 01:02:14;;;;;;;1.50;1.00;;;21.70;71.70;;;;;;4805296;28;21309;-65
2024/02/06 01:05:02;;;;;;;2.53;1.20;;;21.70;71.70;;;;;;4804584;28;20919;-65
2024/02/06 01:07:33;;;;;;;1.20;1.10;;;21.70;71.70;;;;;;4801222;28;20456;-60
2024/02/06 01:10:07;;;;;;;4.40;1.17;;;21.60;71.70;;;;;;4798592;28;20804;-65
2024/02/06 01:12:37;;;;;;;2.07;1.20;;;21.60;71.70;;;;;;4800315;28;20491;-62
2024/02/06 01:15:06;;;;;;;1.43;1.33;;;21.40;71.90;;;;;;4810677;28;20969;-64
2024/02/06 01:17:37;;;;;;;1.73;1.10;;;21.60;71.70;;;;;;4803829;28;20490;-61
2024/02/06 01:20:09;;;;;;;1.90;1.50;;;21.50;71.70;;;;;;4805003;28;20460;-64
2024/02/06 01:22:39;;;;;;;1.00;0.87;;;21.50;71.70;;;;;;4802935;28;21526;-62
2024/02/06 01:25:10;;;;;;;3.53;0.90;;;21.50;71.70;;;;;;4788770;28;20468;-63
2024/02/06 01:27:38;;;;;;;2.60;1.47;;;21.70;72.00;;;;;;4805826;28;20471;-64
2024/02/06 01:30:05;;;;;;;1.20;1.10;;;21.50;71.70;;;;;;4801389;28;22073;-64
2024/02/06 01:32:32;;;;;;;1.77;1.30;;;21.50;71.80;;;;;;4799535;28;20964;-63
2024/02/06 01:35:09;;;;;;;1.20;0.97;;;21.50;71.80;;;;;;4799180;28;21069;-65
2024/02/06 01:37:42;;;;;;;2.92;1.30;;;21.40;71.70;;;;;;4806508;28;20576;-62
2024/02/06 01:40:17;;;;;;;1.83;1.30;;;21.50;71.80;;;;;;4803734;28;20929;-65
2024/02/06 01:42:47;;;;;;;1.73;1.20;;;21.40;71.70;;;;;;4805610;28;21134;-66
2024/02/06 01:45:37;;;;;;;1.53;1.17;;;21.40;71.70;;;;;;4802132;28;20847;-65
2024/02/06 01:48:14;;;;;;;1.70;1.30;;;21.40;71.70;;;;;;4801403;28;20837;-65
2024/02/06 01:53:42;;;;;;;1.10;0.97;;;21.40;71.70;;;;;;4798904;28;26372;-65
2024/02/06 01:56:18;;;;;;;2.37;1.17;;;21.30;72.20;;;;;;4800610;28;26295;-62
2024/02/06 01:58:49;;;;;;;1.37;0.97;;;21.30;72.10;;;;;;4804310;28;20512;-64
2024/02/06 02:01:32;;;;;;;1.60;1.37;;;21.30;71.70;;;;;;4807211;28;21161;-64
2024/02/06 02:04:04;;;;;;;1.95;1.10;;;21.50;71.90;;;;;;4798483;28;20468;-64
2024/02/06 02:09:22;;;;;;;1.30;0.97;;;21.30;71.70;;;;;;4798687;28;20464;-65
2024/02/06 02:11:57;;;;;;;2.80;1.13;;;21.30;71.80;;;;;;4805902;28;20996;-65
2024/02/06 02:14:26;;;;;;;1.10;1.00;;;21.10;71.70;;;;;;4807368;28;20552;-66
2024/02/06 02:17:04;;;;;;;1.83;1.00;;;21.20;71.80;;;;;;4801988;28;20499;-64
2024/02/06 02:19:46;;;;;;;2.00;1.20;;;21.20;71.80;;;;;;4801353;28;21079;-65
2024/02/06 02:22:21;;;;;;;1.27;1.03;;;21.20;71.80;;;;;;4802519;28;21180;-66
2024/02/06 02:24:52;;;;;;;2.00;1.20;;;21.10;71.70;;;;;;4799847;28;20456;-65
2024/02/06 02:27:26;;;;;;;1.27;1.10;;;21.10;71.80;;;;;;4802799;28;20464;-65
2024/02/06 02:30:10;;;;;;;1.30;0.97;;;21.10;71.80;;;;;;4805244;28;20953;-65
2024/02/06 02:32:38;;;;;;;4.60;1.00;;;21.10;71.80;;;;;;4802742;28;20495;-64
2024/02/06 02:35:13;;;;;;;1.83;1.00;;;21.30;72.00;;;;;;4803720;28;21165;-65
2024/02/06 02:37:58;;;;;;;1.57;1.20;;;21.10;71.80;;;;;;4806543;28;21176;-65
2024/02/06 02:40:27;;;;;;;1.67;1.20;;;21.00;71.80;;;;;;4803984;28;20541;-63
2024/02/06 02:43:14;;;;;;;1.83;1.10;;;21.00;71.80;;;;;;4804885;28;20598;-65
2024/02/06 02:45:47;;;;;;;1.60;1.30;;;21.00;71.80;;;;;;4801656;28;20205;-64
2024/02/06 02:48:16;;;;;;;1.30;1.10;;;21.00;71.80;;;;;;4812095;28;21016;-65
2024/02/06 02:50:50;;;;;;;2.53;1.20;;;21.00;71.80;;;;;;4808842;28;20755;-66
2024/02/06 02:53:29;;;;;;;2.40;1.05;;;21.00;71.80;;;;;;4807296;28;21095;-65
2024/02/06 02:56:07;;;;;;;1.20;0.93;;;20.90;71.70;;;;;;4809826;28;20599;-65
2024/02/06 02:58:43;;;;;;;1.90;1.30;;;21.20;72.00;;;;;;4809033;28;21359;-64
2024/02/06 03:01:10;;;;;;;1.20;1.03;;;20.90;71.80;;;;;;4809467;28;20409;-65
2024/02/06 03:03:40;;;;;;;1.73;1.63;;;20.90;72.00;;;;;;4797987;28;21032;-63
2024/02/06 03:06:22;;;;;;;1.23;1.00;;;20.80;71.70;;;;;;4807076;28;20587;-64
2024/02/06 03:08:57;;;;;;;1.40;1.10;;;20.90;71.80;;;;;;4805709;28;26550;-65
2024/02/06 03:11:30;;;;;;;1.00;0.90;;;20.90;71.80;;;;;;4811807;28;20467;-64
2024/02/06 03:13:57;;;;;;;1.30;1.05;;;20.90;71.80;;;;;;4808472;28;20201;-65
2024/02/06 03:16:31;;;;;;;1.30;1.10;;;20.90;71.80;;;;;;4811013;28;20208;-65
2024/02/06 03:19:03;;;;;;;1.30;1.10;;;20.90;71.80;;;;;;4802806;28;26603;-63
2024/02/06 03:21:35;;;;;;;1.30;1.10;;;20.80;71.90;;;;;;4803892;28;21901;-62
2024/02/06 03:24:05;;;;;;;1.37;1.10;;;20.80;72.00;;;;;;4807123;28;20456;-64
2024/02/06 03:26:38;;;;;;;1.20;1.00;;;20.80;71.90;;;;;;4807319;28;20476;-64
2024/02/06 03:29:26;;;;;;;2.20;1.10;;;20.80;72.60;;;;;;4807252;28;20506;-64
2024/02/06 03:31:56;;;;;;;1.87;1.40;;;20.80;72.20;;;;;;4809254;28;21349;-64
2024/02/06 03:34:30;;;;;;;1.30;1.17;;;20.70;72.20;;;;;;4805297;28;26574;-64
2024/02/06 03:37:00;;;;;;;1.67;1.10;;;20.70;72.10;;;;;;4807909;28;20470;-64
2024/02/06 03:39:30;;;;;;;1.30;0.90;;;20.70;72.00;;;;;;4801466;28;20472;-63
2024/02/06 03:41:57;;;;;;;1.70;1.27;;;20.70;72.10;;;;;;4801013;28;20244;-63
2024/02/06 03:44:30;;;;;;;1.47;0.93;;;20.70;72.20;;;;;;4807508;28;20975;-63
2024/02/06 03:47:01;;;;;;;1.10;0.90;;;20.70;72.10;;;;;;4807850;28;20475;-64
2024/02/06 03:49:38;;;;;;;1.40;1.02;;;20.70;72.00;;;;;;4805896;28;20476;-63
2024/02/06 03:52:13;;;;;;;1.10;0.95;;;20.70;72.00;;;;;;4807288;28;20232;-64
2024/02/06 03:54:49;;;;;;;1.20;1.10;;;20.70;72.00;;;;;;4810197;28;20212;-63
2024/02/06 03:57:15;;;;;;;1.52;1.15;;;20.60;72.00;;;;;;4807642;28;23780;-63
2024/02/06 03:59:51;;;;;;;1.20;1.00;;;20.70;72.20;;;;;;4808761;28;20680;-63
2024/02/06 04:02:21;;;;;;;1.20;1.03;;;20.70;72.10;;;;;;4807681;28;21215;-63
2024/02/06 04:05:00;;;;;;;1.30;1.00;;;20.60;72.00;;;;;;4804377;28;20460;-63
2024/02/06 04:07:36;;;;;;;1.83;1.20;;;20.60;72.10;;;;;;4809523;28;20286;-63
2024/02/06 04:10:09;;;;;;;1.20;1.10;;;20.60;71.90;;;;;;4801361;28;26089;-64
2024/02/06 04:12:42;;;;;;;1.20;1.10;;;20.60;72.10;;;;;;4800208;28;20967;-63
2024/02/06 04:15:12;;;;;;;1.83;1.20;;;20.40;71.70;;;;;;4805300;28;20215;-64
2024/02/06 04:17:42;;;;;;;1.40;1.23;;;20.60;71.90;;;;;;4810041;28;20947;-62
2024/02/06 04:20:23;;;;;;;1.60;0.93;;;20.60;71.90;;;;;;4802794;28;21119;-64
2024/02/06 04:23:01;;;;;;;;;;;;;;;;;;;;;
2024/02/06 04:25:48;;;;;;;1.30;1.10;;;20.50;72.00;;;;;;4807629;28;25995;-63
2024/02/06 04:28:24;;;;;;;1.50;1.10;;;20.50;72.10;;;;;;4804451;28;20573;-64
2024/02/06 04:30:55;;;;;;;1.43;1.10;;;20.50;72.20;;;;;;4812898;28;20946;-63
2024/02/06 04:33:32;;;;;;;1.33;0.93;;;20.50;72.10;;;;;;4811140;28;20495;-64
2024/02/06 04:36:03;;;;;;;1.10;0.90;;;20.70;72.30;;;;;;4809778;28;21402;-65
2024/02/06 04:38:34;;;;;;;1.08;0.93;;;20.50;72.10;;;;;;4809996;28;20468;-64
2024/02/06 04:41:05;;;;;;;1.20;1.07;;;20.50;72.00;;;;;;4808030;28;25800;-64
2024/02/06 04:43:37;;;;;;;1.10;1.00;;;20.50;72.10;;;;;;4812222;28;20825;-65
2024/02/06 04:46:12;;;;;;;1.10;0.93;;;20.50;72.00;;;;;;4808542;28;20462;-65
2024/02/06 04:48:40;;;;;;;1.25;1.00;;;20.40;72.20;;;;;;4810727;28;20895;-64
2024/02/06 04:51:10;;;;;;;1.10;1.00;;;20.40;72.10;;;;;;4803382;28;20335;-64
2024/02/06 04:53:40;;;;;;;1.10;1.00;;;20.40;72.10;;;;;;4809192;28;20472;-64
2024/02/06 04:56:14;;;;;;;1.10;0.90;;;20.40;72.10;;;;;;4805053;28;20468;-63
2024/02/06 04:58:44;;;;;;;1.67;1.43;;;20.30;72.30;;;;;;4809529;28;25678;-64
2024/02/06 05:01:13;;;;;;;1.13;1.00;;;20.40;72.30;;;;;;4802618;28;20869;-64
2024/02/06 05:03:50;;;;;;;1.10;0.90;;;20.40;72.30;;;;;;4792699;28;26276;-62
2024/02/06 05:06:39;;;;;;;1.70;1.33;;;20.40;72.40;;;;;;4808927;28;20463;-64
2024/02/06 05:09:16;;;;;;;2.20;1.00;;;20.40;72.40;;;;;;4803209;28;20468;-65
2024/02/06 05:11:51;;;;;;;1.30;1.20;;;20.40;72.40;;;;;;4795440;28;20805;-65
2024/02/06 05:14:27;;;;;;;1.10;0.90;;;20.40;72.30;;;;;;4804296;28;20225;-64
2024/02/06 05:16:59;;;;;;;2.80;1.20;;;20.30;72.30;;;;;;4806433;28;21601;-64
2024/02/06 05:19:32;;;;;;;1.67;1.17;;;20.40;72.40;;;;;;4798803;28;21850;-63
2024/02/06 05:22:00;;;;;;;1.20;0.90;;;20.40;72.30;;;;;;4800491;28;26695;-61
2024/02/06 05:24:36;;;;;;;1.88;0.90;;;20.40;72.00;;;;;;4802516;28;20630;-62
2024/02/06 05:27:10;;;;;;;1.20;1.00;;;20.40;72.30;;;;;;4803145;28;20368;-62
2024/02/06 05:29:47;;;;;;;1.87;1.40;;;20.40;72.30;;;;;;4805427;28;21475;-62
2024/02/06 05:32:20;;;;;;;1.13;1.00;;;20.30;72.00;;;;;;4798654;28;20762;-62
2024/02/06 05:34:54;;;;;;;1.20;1.00;;;20.30;72.10;;;;;;4808140;28;20460;-63
2024/02/06 05:37:20;;;;;;;1.40;1.00;;;20.30;71.80;;;;;;4800845;28;21172;-63
2024/02/06 05:39:51;;;;;;;1.53;1.10;;;20.30;72.30;;;;;;4802760;28;20205;-66
2024/02/06 05:42:31;;;;;;;1.38;1.27;;;20.30;72.30;;;;;;4805500;28;21051;-65
2024/02/06 05:45:04;;;;;;;1.73;1.13;;;20.30;72.30;;;;;;4807289;28;20704;-65
2024/02/06 05:47:35;;;;;;;1.20;0.97;;;20.30;72.30;;;;;;4798940;28;20795;-66
2024/02/06 05:50:05;;;;;;;1.20;0.93;;;20.30;72.30;;;;;;4797733;28;25958;-67
2024/02/06 05:52:34;;;;;;;1.57;1.10;;;20.30;72.40;;;;;;4799732;28;21203;-64
2024/02/06 05:55:07;;;;;;;1.20;1.10;;;20.10;72.10;;;;;;4802851;28;20468;-64
2024/02/06 05:57:51;;;;;;;1.63;1.15;;;20.20;72.20;;;;;;4800050;28;26628;-61
2024/02/06 06:00:42;;;;;;;1.00;0.80;;;20.00;72.10;;;;;;4805553;28;21573;-65
2024/02/06 06:03:14;;;;;;;1.35;1.10;;;20.20;72.40;;;;;;4802466;28;20626;-64
2024/02/06 06:05:46;;;;;;;1.60;1.03;;;20.20;72.30;;;;;;4801012;28;20212;-65
2024/02/06 06:08:25;;;;;;;1.20;1.10;;;20.20;72.30;;;;;;4806217;28;20460;-65
2024/02/06 06:10:57;;;;;;;1.40;1.10;;;20.20;72.30;;;;;;4805947;28;20460;-65
2024/02/06 06:13:27;;;;;;;1.33;1.05;;;20.20;72.40;;;;;;4807728;28;20497;-64
2024/02/06 06:16:05;;;;;;;1.58;1.35;;;20.20;72.60;;;;;;4802358;28;20624;-66
2024/02/06 06:18:41;;;;;;;1.70;0.95;;;19.90;72.20;;;;;;4805624;28;20888;-65
2024/02/06 06:21:10;;;;;;;1.20;0.90;;;20.20;72.40;;;;;;4808470;28;20621;-65
2024/02/06 06:23:40;;;;;;;1.33;1.23;;;20.40;72.70;;;;;;4804163;28;20213;-65
2024/02/06 06:26:13;;;;;;;1.50;1.20;;;20.20;72.50;;;;;;4809456;28;20788;-64
2024/02/06 06:28:52;;;;;;;;;;;;;;;;;;;;;
2024/02/06 06:31:32;;;;;;;1.30;1.10;;;20.40;72.60;;;;;;4808098;28;21016;-62
2024/02/06 06:34:04;;;;;;;1.45;1.35;;;20.10;72.30;;;;;;4807722;28;20542;-63
2024/02/06 06:36:39;;;;;;;1.20;1.02;;;19.90;72.20;;;;;;4813164;28;20200;-63
2024/02/06 06:39:11;;;;;;;1.42;1.02;;;20.50;72.90;;;;;;4808415;28;20715;-64
2024/02/06 06:41:47;;;;;;;1.38;1.00;;;20.50;72.90;;;;;;4807321;28;20203;-65
2024/02/06 06:44:19;;;;;;;1.45;1.13;;;20.10;72.40;;;;;;4806676;28;20213;-64
2024/02/06 06:46:53;;;;;;;1.03;0.90;;;20.20;72.60;;;;;;4809693;28;20197;-64
2024/02/06 06:49:25;;;;;;;1.45;1.10;;;20.10;72.70;;;;;;4808947;28;20979;-65
2024/02/06 06:51:54;;;;;;;1.20;0.90;;;20.10;72.70;;;;;;4807694;28;20891;-61
2024/02/06 06:54:31;;;;;;;1.23;1.02;;;19.90;73.00;;;;;;4804464;28;26158;-66
2024/02/06 06:57:00;;;;;;;1.07;0.83;;;20.10;74.00;;;;;;4806692;28;20240;-66
2024/02/06 06:59:28;;;;;;;1.52;1.10;;;20.20;74.20;;;;;;4804514;28;21155;-64
2024/02/06 07:02:04;;;;;;;1.10;1.00;;;20.10;74.50;;;;;;4806776;28;20212;-63
2024/02/06 07:04:36;;;;;;;1.20;1.00;;;20.10;74.50;;;;;;4807876;28;20227;-64
2024/02/06 07:07:07;;;;;;;1.17;1.00;;;20.10;73.70;;;;;;4814201;28;21190;-64
2024/02/06 07:09:41;;;;;;;1.17;1.00;;;20.10;73.40;;;;;;4809476;28;20204;-63
2024/02/06 07:12:10;;;;;;;1.60;0.90;;;19.90;73.10;;;;;;4807845;28;20631;-61
2024/02/06 07:14:43;;;;;;;1.10;1.00;;;20.00;73.90;;;;;;4804025;28;20488;-65
2024/02/06 07:17:15;;;;;;;1.23;1.05;;;20.00;73.40;;;;;;4802890;28;21008;-62
2024/02/06 07:19:49;;;;;;;1.30;1.13;;;19.90;72.80;;;;;;4804942;28;20259;-64
2024/02/06 07:22:15;;;;;;;1.20;1.02;;;20.00;72.70;;;;;;4807294;28;20468;-66
2024/02/06 07:24:45;;;;;;;1.80;0.90;;;20.10;72.90;;;;;;4809253;28;20201;-65
2024/02/06 07:27:12;;;;;;;1.48;1.25;;;20.00;72.70;;;;;;4809360;28;20212;-65
2024/02/06 07:29:50;;;;;;;1.30;1.00;;;20.00;72.80;;;;;;4806384;28;20304;-65
2024/02/06 07:32:22;;;;;;;1.27;1.15;;;19.80;72.60;;;;;;4805431;28;20463;-64
2024/02/06 07:34:56;;;;;;;1.25;1.08;;;20.00;72.80;;;;;;4802429;28;21019;-65
2024/02/06 07:37:23;;;;;;;2.45;1.10;;;20.00;73.70;;;;;;4803899;28;20209;-63
2024/02/06 07:39:58;;;;;;;1.85;0.90;;;20.00;72.90;;;;;;4808165;28;20689;-66
2024/02/06 07:42:27;;;;;;;1.07;0.90;;;19.60;72.50;;;;;;4803970;28;20204;-65
2024/02/06 07:44:55;;;;;;;1.35;0.93;;;19.90;73.40;;;;;;4805851;28;26567;-66
2024/02/06 07:47:22;;;;;;;1.20;1.10;;;20.00;73.90;;;;;;4807013;28;20288;-65
2024/02/06 07:49:55;;;;;;;2.63;1.20;;;20.00;74.00;;;;;;4808766;28;23586;-64
2024/02/06 07:52:31;;;;;;;1.50;1.08;;;20.40;74.70;;;;;;4805373;28;20939;-64
2024/02/06 07:55:13;;;;;;;;;;;;;;;;;;;;;
2024/02/06 07:57:49;;;;;;;1.20;1.00;;;20.20;74.50;;;;;;4796091;28;20568;-63
2024/02/06 08:00:28;;;;;;;1.25;1.10;;;19.80;74.10;;;;;;4802936;28;20684;-65
2024/02/06 08:02:59;;;;;;;1.00;0.80;;;20.20;74.60;;;;;;4805544;28;20203;-63
2024/02/06 08:05:32;;;;;;;1.10;0.90;;;20.20;74.50;;;;;;4803776;28;20612;-63
2024/02/06 08:08:00;;;;;;;1.30;1.05;;;20.10;74.60;;;;;;4805747;28;20251;-65
2024/02/06 08:10:37;;;;;;;1.10;0.83;;;20.20;74.60;;;;;;4810601;28;20228;-65
2024/02/06 08:13:09;;;;;;;1.03;0.87;;;20.20;74.70;;;;;;4807273;28;20763;-65
2024/02/06 08:15:49;;;;;;;1.20;0.90;;;20.60;75.10;;;;;;4804897;28;21210;-66
2024/02/06 08:18:24;;;;;;;1.30;1.00;;;20.20;74.80;;;;;;4803679;28;20411;-66
2024/02/06 08:20:54;;;;;;;3.10;1.30;;;20.10;74.40;;;;;;4805317;28;20199;-61
2024/02/06 08:23:25;;;;;;;1.10;0.85;;;20.40;75.40;;;;;;4805768;28;20685;-65
2024/02/06 08:25:52;;;;;;;4.10;1.35;;;20.20;75.90;;;;;;4806988;28;20205;-63
2024/02/06 08:28:25;;;;;;;4.15;1.25;;;20.20;75.80;;;;;;4796890;28;20554;-61
2024/02/06 08:31:09;;;;;;;1.97;1.47;;;20.30;76.30;;;;;;4802991;28;20764;-61
2024/02/06 08:33:46;;;;;;;1.50;1.10;;;20.50;75.60;;;;;;4808499;28;21288;-62
2024/02/06 08:36:13;;;;;;;1.40;0.93;;;20.40;75.80;;;;;;4805443;28;20752;-60
2024/02/06 08:38:45;;;;;;;1.42;1.10;;;20.30;75.60;;;;;;4810063;28;21866;-62
2024/02/06 08:41:22;;;;;;;4.50;1.10;;;20.30;75.60;;;;;;4807213;28;20462;-64
2024/02/06 08:43:55;;;;;;;4.10;1.50;;;20.50;75.40;;;;;;4801709;28;20220;-64
2024/02/06 08:46:27;;;;;;;2.17;0.90;;;20.20;75.40;;;;;;4810420;28;20327;-62
2024/02/06 08:48:59;;;;;;;1.40;0.90;;;20.30;75.60;;;;;;4808780;28;20491;-62
2024/02/06 08:51:34;;;;;;;2.20;1.27;;;20.80;75.90;;;;;;4803800;28;20567;-63
2024/02/06 08:56:49;;;;;;;2.55;1.08;;;20.40;75.40;;;;;;4809955;28;25796;-62
2024/02/06 08:59:20;;;;;;;1.13;0.97;;;20.70;75.50;;;;;;4800352;28;20205;-64
2024/02/06 09:01:51;;;;;;;3.10;1.17;;;20.40;75.30;;;;;;4805571;28;21035;-64
2024/02/06 09:04:24;;;;;;;1.17;1.05;;;20.40;75.60;;;;;;4803971;28;21213;-64
2024/02/06 09:06:52;;;;;;;2.30;1.00;;;20.60;75.80;;;;;;4808172;28;20791;-65
2024/02/06 09:09:32;;;;;;;1.15;1.05;;;20.40;75.20;;;;;;4809958;28;25465;-64
2024/02/06 09:12:05;;;;;;;1.13;0.90;;;20.40;75.20;;;;;;4805120;28;20968;-63
2024/02/06 09:14:32;;;;;;;2.00;1.20;;;20.30;75.10;;;;;;4803435;28;20484;-66
2024/02/06 09:17:03;;;;;;;1.40;1.00;;;20.30;75.10;;;;;;4794021;28;20202;-62
2024/02/06 09:19:30;;;;;;;2.47;1.30;;;20.40;75.20;;;;;;4798855;28;20463;-65
2024/02/06 09:22:01;;;;;;;1.20;1.10;;;20.80;76.00;;;;;;4805766;28;20685;-64
2024/02/06 09:24:33;;;;;;;1.77;1.00;;;20.40;76.20;;;;;;4805389;28;20745;-62
2024/02/06 09:27:04;;;;;;;1.77;1.10;;;20.40;76.30;;;;;;4808520;28;20921;-64
2024/02/06 09:29:44;;;;;;;3.13;1.00;;;20.60;76.70;;;;;;4806067;28;20323;-65
2024/02/06 09:32:20;;;;;;;2.80;1.47;;;20.60;77.30;;;;;;4806031;28;21332;-64
2024/02/06 09:34:49;;;;;;;1.57;1.10;;;20.50;76.40;;;;;;4804810;28;21354;-62
2024/02/06 09:37:19;;;;;;;1.80;0.90;;;20.50;77.00;;;;;;4805953;28;21163;-63
2024/02/06 09:39:54;;;;;;;1.10;1.00;;;20.60;76.30;;;;;;4809022;28;20197;-63
2024/02/06 09:42:28;;;;;;;1.43;1.07;;;20.70;77.00;;;;;;4809979;28;20602;-64
2024/02/06 09:44:56;;;;;;;1.92;0.82;;;20.50;76.70;;;;;;4806231;28;20452;-61
2024/02/06 09:47:29;;;;;;;2.23;1.23;;;20.80;77.00;;;;;;4808149;28;20201;-63
2024/02/06 09:50:06;;;;;;;4.30;1.10;;;20.60;76.50;;;;;;4807269;28;20581;-61
2024/02/06 09:52:46;;;;;;;1.50;1.00;;;21.00;77.20;;;;;;4811923;28;20901;-64
2024/02/06 09:55:16;;;;;;;1.60;0.97;;;20.80;76.80;;;;;;4808789;28;20581;-62
2024/02/06 09:57:52;;;;;;;1.10;0.87;;;20.70;76.70;;;;;;4804777;28;21222;-63
2024/02/06 10:00:24;;;;;;;1.30;1.10;;;20.60;76.50;;;;;;4800181;28;20467;-64
2024/02/06 10:03:08;;;;;;;1.97;1.27;;;20.90;76.70;;;;;;4814648;28;20460;-64
2024/02/06 10:05:42;;;;;;;1.80;1.13;;;20.70;76.40;;;;;;4808855;28;21220;-65
2024/02/06 10:08:22;;;;;;;1.60;1.03;;;21.00;77.00;;;;;;4808752;28;20212;-64
2024/02/06 10:10:52;;;;;;;1.30;0.93;;;21.00;77.10;;;;;;4804369;28;20460;-62
2024/02/06 10:13:22;;;;;;;1.70;0.80;;;20.90;76.80;;;;;;4798613;28;20508;-63
2024/02/06 10:15:53;;;;;;;1.85;1.23;;;20.80;76.80;;;;;;4806460;28;20929;-64
2024/02/06 10:18:28;;;;;;;2.00;1.10;;;20.90;77.00;;;;;;4797670;28;20240;-65
2024/02/06 10:21:05;;;;;;;1.13;1.03;;;20.60;76.90;;;;;;4805584;28;21168;-62
2024/02/06 10:23:34;;;;;;;1.53;1.00;;;20.90;77.20;;;;;;4807298;28;20468;-61
2024/02/06 10:26:22;;;;;;;4.90;1.20;;;20.80;77.30;;;;;;4809490;28;20480;-61
2024/02/06 10:28:52;;;;;;;1.47;0.90;;;20.90;77.80;;;;;;4806695;28;20468;-64
2024/02/06 10:31:29;;;;;;;1.30;0.80;;;20.90;78.00;;;;;;4804884;28;20463;-63
2024/02/06 10:34:14;;;;;;;1.83;1.00;;;20.90;78.00;;;;;;4809244;28;20460;-64
2024/02/06 10:36:45;;;;;;;1.53;1.00;;;21.00;78.30;;;;;;4808609;28;21151;-63
2024/02/06 10:39:25;;;;;;;1.50;1.20;;;20.90;78.30;;;;;;4810981;28;21046;-63
2024/02/06 10:42:02;;;;;;;1.20;1.10;;;20.90;78.50;;;;;;4805096;28;21444;-64
2024/02/06 10:44:31;;;;;;;1.50;1.10;;;20.90;78.10;;;;;;4811013;28;26584;-63
2024/02/06 10:47:04;;;;;;;1.40;0.93;;;21.00;78.80;;;;;;4813468;28;21323;-63
2024/02/06 10:49:45;;;;;;;1.80;1.13;;;20.90;78.30;;;;;;4812308;28;21068;-65
2024/02/06 10:52:20;;;;;;;1.63;1.00;;;21.10;78.90;;;;;;4808206;28;20475;-63
2024/02/06 10:54:54;;;;;;;1.90;1.10;;;21.00;78.50;;;;;;4804527;28;20955;-65
2024/02/06 10:57:29;;;;;;;1.50;0.87;;;21.00;78.40;;;;;;4805945;28;20468;-62
2024/02/06 11:00:11;;;;;;;1.20;1.10;;;20.30;77.90;;;;;;4809289;28;25946;-63
2024/02/06 11:02:41;;;;;;;1.80;1.30;;;21.10;78.60;;;;;;4807639;28;20467;-64
2024/02/06 11:05:24;;;;;;;2.03;1.07;;;20.90;78.60;;;;;;4807718;28;20468;-62
2024/02/06 11:07:57;;;;;;;1.10;0.87;;;21.10;78.70;;;;;;4816278;28;20591;-65
2024/02/06 11:10:40;;;;;;;1.17;1.00;;;21.00;78.80;;;;;;4809932;28;20464;-63
2024/02/06 11:13:08;;;;;;;1.20;0.80;;;20.90;78.80;;;;;;4794905;28;21130;-64
2024/02/06 11:15:42;;;;;;;1.20;0.90;;;20.90;78.80;;;;;;4809504;28;20729;-63
2024/02/06 11:18:15;;;;;;;1.40;1.00;;;21.40;79.40;;;;;;4809800;28;20205;-61
2024/02/06 11:20:54;;;;;;;1.27;1.00;;;21.10;79.00;;;;;;4814631;28;20955;-63
2024/02/06 11:23:22;;;;;;;1.53;1.03;;;21.50;79.20;;;;;;4813863;28;20494;-62
2024/02/06 11:25:58;;;;;;;1.20;0.90;;;20.80;78.30;;;;;;4811731;28;20480;-64
2024/02/06 11:28:30;;;;;;;9.43;1.10;;;20.90;78.70;;;;;;4811274;28;20462;-63
2024/02/06 11:31:04;;;;;;;2.17;1.10;;;21.20;79.00;;;;;;4814332;28;20594;-62
2024/02/06 11:33:35;;;;;;;2.00;1.33;;;20.90;78.90;;;;;;4809206;28;20553;-62
2024/02/06 11:36:35;;;;;;;1.83;1.00;;;21.10;79.20;;;;;;4805648;28;20491;-60
2024/02/06 11:39:14;;;;;;;1.30;1.17;;;21.10;79.50;;;;;;4806497;28;21236;-61
2024/02/06 11:41:54;;;;;;;1.60;1.40;;;21.10;79.60;;;;;;4808429;28;20460;-61
2024/02/06 11:44:40;;;;;;;1.73;1.33;;;21.10;79.50;;;;;;4811382;28;25726;-58
2024/02/06 11:47:23;;;;;;;1.10;0.90;;;21.10;79.60;;;;;;4808548;28;21777;-62
2024/02/06 11:49:52;;;;;;;1.20;1.07;;;21.10;79.60;;;;;;4803986;28;21664;-62
2024/02/06 11:52:25;;;;;;;2.63;1.00;;;21.10;79.80;;;;;;4811052;28;20471;-62
2024/02/06 11:54:54;;;;;;;4.50;0.90;;;20.70;79.60;;;;;;4813927;28;20463;-62
2024/02/06 11:57:31;;;;;;;1.73;0.87;;;21.20;80.00;;;;;;4808028;28;20473;-59
2024/02/06 11:59:59;;;;;;;1.00;0.80;;;21.30;79.80;;;;;;4802956;28;20800;-63
2024/02/06 12:02:39;;;;;;;1.87;1.20;;;21.40;80.10;;;;;;4813152;28;21134;-63
2024/02/06 12:05:12;;;;;;;2.80;1.20;;;21.20;79.70;;;;;;4813401;28;20507;-61
2024/02/06 12:08:03;;;;;;;1.17;0.90;;;21.20;80.00;;;;;;4807314;28;21467;-63
2024/02/06 12:10:33;;;;;;;1.07;0.90;;;21.20;79.80;;;;;;4809921;28;20473;-61
2024/02/06 12:13:15;;;;;;;2.23;1.10;;;21.60;80.50;;;;;;4807595;28;20464;-62
2024/02/06 12:15:46;;;;;;;1.33;1.10;;;21.30;80.40;;;;;;4807643;28;20996;-56
2024/02/06 12:18:16;;;;;;;2.00;1.30;;;21.30;80.20;;;;;;4806392;28;20780;-62
2024/02/06 12:20:43;;;;;;;3.03;0.90;;;21.30;80.30;;;;;;4807729;28;20967;-62
2024/02/06 12:23:22;;;;;;;1.20;1.03;;;21.30;80.70;;;;;;4809340;28;25957;-59
2024/02/06 12:25:55;;;;;;;1.70;1.20;;;21.40;80.60;;;;;;4811358;28;25968;-62
2024/02/06 12:28:29;;;;;;;1.33;1.00;;;21.50;80.40;;;;;;4808435;28;20611;-62
2024/02/06 12:31:01;;;;;;;1.10;1.00;;;21.60;80.60;;;;;;4806345;28;20478;-61
2024/02/06 12:33:46;;;;;;;;;;;;;;;;;;;;;
2024/02/06 12:36:18;;;;;;;1.20;1.00;;;21.10;79.60;;;;;;4810150;28;26872;-62
2024/02/06 12:38:52;;;;;;;2.03;1.20;;;21.10;79.60;;;;;;4811751;28;20475;-63
2024/02/06 12:41:22;;;;;;;1.93;1.10;;;21.60;80.00;;;;;;4808225;28;20468;-63
2024/02/06 12:43:52;;;;;;;2.50;1.30;;;22.00;79.80;;;;;;4811550;28;21202;-62
2024/02/06 12:46:27;;;;;;;1.13;1.00;;;21.70;80.10;;;;;;4807640;28;20966;-61
2024/02/06 12:48:56;;;;;;;1.57;0.93;;;21.70;79.90;;;;;;4802620;28;21396;-61
2024/02/06 12:51:26;;;;;;;1.40;1.20;;;21.70;80.30;;;;;;4805629;28;21083;-62
2024/02/06 12:54:02;;;;;;;6.10;1.30;;;21.90;80.10;;;;;;4806853;28;20966;-61
2024/02/06 12:56:36;;;;;;;1.63;1.00;;;21.80;80.10;;;;;;4802340;28;20487;-60
2024/02/06 12:59:06;;;;;;;1.70;1.10;;;22.20;80.60;;;;;;4801758;28;20471;-62
2024/02/06 13:01:36;;;;;;;1.73;1.00;;;22.40;81.20;;;;;;4801453;28;20978;-62
2024/02/06 13:04:15;;;;;;;2.80;1.30;;;21.90;80.30;;;;;;4811682;28;20471;-60
2024/02/06 13:06:47;;;;;;;1.97;0.80;;;21.90;79.90;;;;;;4810502;28;20472;-61
2024/02/06 13:09:30;;;;;;;2.10;1.10;;;21.80;80.30;;;;;;4812741;28;20833;-61
2024/02/06 13:12:06;;;;;;;1.60;1.10;;;22.30;80.90;;;;;;4806835;28;20533;-61
2024/02/06 13:14:36;;;;;;;1.60;0.87;;;21.90;80.60;;;;;;4807401;28;21157;-59
2024/02/06 13:17:20;;;;;;;1.67;1.03;;;22.00;81.00;;;;;;4813032;28;20484;-60
2024/02/06 13:19:49;;;;;;;1.70;1.13;;;22.50;81.40;;;;;;4811688;28;20464;-62
2024/02/06 13:22:25;;;;;;;2.80;1.00;;;22.40;81.40;;;;;;4809342;28;20560;-62
2024/02/06 13:25:04;;;;;;;1.87;1.53;;;22.00;80.80;;;;;;4808000;28;21561;-60
2024/02/06 13:27:33;;;;;;;1.53;1.10;;;22.00;80.60;;;;;;4810617;28;20472;-60
2024/02/06 13:30:00;;;;;;;2.60;1.10;;;21.80;81.20;;;;;;4808587;28;21046;-59
2024/02/06 13:32:30;;;;;;;1.50;1.07;;;22.10;80.70;;;;;;4801859;28;20475;-61
2024/02/06 13:35:03;;;;;;;2.23;1.10;;;22.10;80.70;;;;;;4811730;28;25836;-62